sensor_id;sensor_type;location;lat;lon;timestamp;temperature;humidity
28761;DHT22;15917;50.014;8.352;2023-02-22T00:00:36;8.00;99.90
28761;DHT22;15917;50.014;8.352;2023-02-22T00:03:23;8.00;99.90
28761;DHT22;15917;50.014;8.352;2023-02-22T00:06:00;7.90;99.90
28761;DHT22;15917;50.014;8.352;2023-02-22T00:08:31;7.90;99.90
28761;DHT22;15917;50.014;8.352;2023-02-22T00:11:02;7.80;99.90
28761;DHT22;15917;50.014;8.352;2023-02-22T00:13:29;7.80;99.90
28761;DHT22;15917;50.014;8.352;2023-02-22T00:15:56;7.70;99.90
28761;DHT22;15917;50.014;8.352;2023-02-22T00:18:22;7.70;99.90
28761;DHT22;15917;50.014;8.352;2023-02-22T00:20:48;7.70;99.90
28761;DHT22;15917;50.014;8.352;2023-02-22T00:23:16;7.70;99.90
28761;DHT22;15917;50.014;8.352;2023-02-22T00:25:44;7.70;99.90
28761;DHT22;15917;50.014;8.352;2023-02-22T00:28:10;7.70;99.90
28761;DHT22;15917;50.014;8.352;2023-02-22T00:30:35;7.70;99.90
28761;DHT22;15917;50.014;8.352;2023-02-22T00:33:01;7.60;99.90
28761;DHT22;15917;50.014;8.352;2023-02-22T00:35:29;7.60;99.90
28761;DHT22;15917;50.014;8.352;2023-02-22T00:37:58;7.50;99.90
28761;DHT22;15917;50.014;8.352;2023-02-22T00:40:28;7.50;99.90
28761;DHT22;15917;50.014;8.352;2023-02-22T00:42:55;7.50;99.90
28761;DHT22;15917;50.014;8.352;2023-02-22T00:45:23;7.50;99.90
28761;DHT22;15917;50.014;8.352;2023-02-22T00:47:49;7.50;99.90
28761;DHT22;15917;50.014;8.352;2023-02-22T00:50:16;7.50;99.90
28761;DHT22;15917;50.014;8.352;2023-02-22T00:52:43;7.50;99.90
28761;DHT22;15917;50.014;8.352;2023-02-22T00:55:14;7.50;99.90
28761;DHT22;15917;50.014;8.352;2023-02-22T00:57:40;7.40;99.90
28761;DHT22;15917;50.014;8.352;2023-02-22T01:00:07;7.40;99.90
28761;DHT22;15917;50.014;8.352;2023-02-22T01:02:38;7.40;99.90
28761;DHT22;15917;50.014;8.352;2023-02-22T01:05:06;7.40;99.90
28761;DHT22;15917;50.014;8.352;2023-02-22T01:07:32;7.30;99.90
28761;DHT22;15917;50.014;8.352;2023-02-22T01:09:59;7.30;99.90
28761;DHT22;15917;50.014;8.352;2023-02-22T01:12:26;7.30;99.90
28761;DHT22;15917;50.014;8.352;2023-02-22T01:14:51;7.30;99.90
28761;DHT22;15917;50.014;8.352;2023-02-22T01:17:22;7.20;99.90
28761;DHT22;15917;50.014;8.352;2023-02-22T01:19:47;7.20;99.90
28761;DHT22;15917;50.014;8.352;2023-02-22T01:22:13;7.20;99.90
28761;DHT22;15917;50.014;8.352;2023-02-22T01:24:39;7.20;99.90
28761;DHT22;15917;50.014;8.352;2023-02-22T01:27:04;7.20;99.90
28761;DHT22;15917;50.014;8.352;2023-02-22T01:29:30;7.20;99.90
28761;DHT22;15917;50.014;8.352;2023-02-22T01:31:56;7.10;99.90
28761;DHT22;15917;50.014;8.352;2023-02-22T01:34:23;7.10;99.90
28761;DHT22;15917;50.014;8.352;2023-02-22T01:36:48;7.00;99.90
28761;DHT22;15917;50.014;8.352;2023-02-22T01:39:15;7.00;99.90
28761;DHT22;15917;50.014;8.352;2023-02-22T01:41:43;7.00;99.90
28761;DHT22;15917;50.014;8.352;2023-02-22T01:44:34;7.00;99.90
28761;DHT22;15917;50.014;8.352;2023-02-22T01:47:02;7.00;99.90
28761;DHT22;15917;50.014;8.352;2023-02-22T01:49:32;7.00;99.90
28761;DHT22;15917;50.014;8.352;2023-02-22T01:52:00;7.00;99.90
28761;DHT22;15917;50.014;8.352;2023-02-22T01:54:43;7.00;99.90
28761;DHT22;15917;50.014;8.352;2023-02-22T01:57:29;6.90;99.90
28761;DHT22;15917;50.014;8.352;2023-02-22T01:59:59;6.90;99.90
28761;DHT22;15917;50.014;8.352;2023-02-22T02:02:27;6.90;99.90
28761;DHT22;15917;50.014;8.352;2023-02-22T02:04:54;6.80;99.90
28761;DHT22;15917;50.014;8.352;2023-02-22T02:07:22;6.90;99.90
28761;DHT22;15917;50.014;8.352;2023-02-22T02:10:04;6.90;99.90
28761;DHT22;15917;50.014;8.352;2023-02-22T02:12:33;6.90;99.90
28761;DHT22;15917;50.014;8.352;2023-02-22T02:15:23;7.00;99.90
28761;DHT22;15917;50.014;8.352;2023-02-22T02:17:52;6.90;99.90
28761;DHT22;15917;50.014;8.352;2023-02-22T02:20:26;7.00;99.90
28761;DHT22;15917;50.014;8.352;2023-02-22T02:28:56;6.90;99.90
28761;DHT22;15917;50.014;8.352;2023-02-22T02:34:29;6.90;99.90
28761;DHT22;15917;50.014;8.352;2023-02-22T02:37:15;6.90;99.90
28761;DHT22;15917;50.014;8.352;2023-02-22T02:39:56;6.80;99.90
28761;DHT22;15917;50.014;8.352;2023-02-22T02:42:29;6.90;99.90
28761;DHT22;15917;50.014;8.352;2023-02-22T02:45:04;6.90;99.90
28761;DHT22;15917;50.014;8.352;2023-02-22T02:47:38;6.90;99.90
28761;DHT22;15917;50.014;8.352;2023-02-22T02:50:09;6.90;99.90
28761;DHT22;15917;50.014;8.352;2023-02-22T02:52:36;6.90;99.90
28761;DHT22;15917;50.014;8.352;2023-02-22T02:55:06;6.80;99.90
28761;DHT22;15917;50.014;8.352;2023-02-22T02:57:32;6.80;99.90
28761;DHT22;15917;50.014;8.352;2023-02-22T02:59:58;6.70;99.90
28761;DHT22;15917;50.014;8.352;2023-02-22T03:10:59;6.70;99.90
28761;DHT22;15917;50.014;8.352;2023-02-22T03:16:29;6.70;99.90
28761;DHT22;15917;50.014;8.352;2023-02-22T03:22:08;6.70;99.90
28761;DHT22;15917;50.014;8.352;2023-02-22T03:25:04;6.60;99.90
28761;DHT22;15917;50.014;8.352;2023-02-22T03:27:50;6.60;99.90
28761;DHT22;15917;50.014;8.352;2023-02-22T03:30:31;6.60;99.90
28761;DHT22;15917;50.014;8.352;2023-02-22T03:33:04;6.60;99.90
28761;DHT22;15917;50.014;8.352;2023-02-22T03:35:37;6.50;99.90
28761;DHT22;15917;50.014;8.352;2023-02-22T03:38:06;6.50;99.90
28761;DHT22;15917;50.014;8.352;2023-02-22T03:40:36;6.50;99.90
28761;DHT22;15917;50.014;8.352;2023-02-22T03:43:12;6.50;99.90
28761;DHT22;15917;50.014;8.352;2023-02-22T03:45:43;6.40;99.90
28761;DHT22;15917;50.014;8.352;2023-02-22T03:48:26;6.40;99.90
28761;DHT22;15917;50.014;8.352;2023-02-22T03:50:55;6.40;99.90
28761;DHT22;15917;50.014;8.352;2023-02-22T03:53:23;6.40;99.90
28761;DHT22;15917;50.014;8.352;2023-02-22T03:55:51;6.40;99.90
28761;DHT22;15917;50.014;8.352;2023-02-22T03:58:22;6.30;99.90
28761;DHT22;15917;50.014;8.352;2023-02-22T04:00:49;6.30;99.90
28761;DHT22;15917;50.014;8.352;2023-02-22T04:03:19;6.30;99.90
28761;DHT22;15917;50.014;8.352;2023-02-22T04:05:45;6.30;99.90
28761;DHT22;15917;50.014;8.352;2023-02-22T04:08:11;6.20;99.90
28761;DHT22;15917;50.014;8.352;2023-02-22T04:10:36;6.10;99.90
28761;DHT22;15917;50.014;8.352;2023-02-22T04:13:03;6.10;99.90
28761;DHT22;15917;50.014;8.352;2023-02-22T04:15:32;6.10;99.90
28761;DHT22;15917;50.014;8.352;2023-02-22T04:18:02;6.10;99.90
28761;DHT22;15917;50.014;8.352;2023-02-22T04:20:29;6.10;99.90
28761;DHT22;15917;50.014;8.352;2023-02-22T04:22:59;6.10;99.90
28761;DHT22;15917;50.014;8.352;2023-02-22T04:25:25;6.00;99.90
28761;DHT22;15917;50.014;8.352;2023-02-22T04:27:52;6.00;99.90
28761;DHT22;15917;50.014;8.352;2023-02-22T04:30:22;6.00;99.90
28761;DHT22;15917;50.014;8.352;2023-02-22T04:32:49;5.90;99.90
28761;DHT22;15917;50.014;8.352;2023-02-22T04:35:19;5.90;99.90
28761;DHT22;15917;50.014;8.352;2023-02-22T04:37:44;5.80;99.90
28761;DHT22;15917;50.014;8.352;2023-02-22T04:40:11;5.90;99.90
28761;DHT22;15917;50.014;8.352;2023-02-22T04:42:37;5.90;99.90
28761;DHT22;15917;50.014;8.352;2023-02-22T04:45:05;5.90;99.90
28761;DHT22;15917;50.014;8.352;2023-02-22T04:47:34;6.00;99.90
28761;DHT22;15917;50.014;8.352;2023-02-22T04:50:00;5.90;99.90
28761;DHT22;15917;50.014;8.352;2023-02-22T04:52:26;5.90;99.90
28761;DHT22;15917;50.014;8.352;2023-02-22T04:54:52;5.90;99.90
28761;DHT22;15917;50.014;8.352;2023-02-22T04:57:18;5.90;99.90
28761;DHT22;15917;50.014;8.352;2023-02-22T04:59:43;5.90;99.90
28761;DHT22;15917;50.014;8.352;2023-02-22T05:02:10;5.90;99.90
28761;DHT22;15917;50.014;8.352;2023-02-22T05:04:37;5.90;99.90
28761;DHT22;15917;50.014;8.352;2023-02-22T05:07:03;5.90;99.90
28761;DHT22;15917;50.014;8.352;2023-02-22T05:09:28;5.80;99.90
28761;DHT22;15917;50.014;8.352;2023-02-22T05:11:54;5.80;99.90
28761;DHT22;15917;50.014;8.352;2023-02-22T05:14:20;5.80;99.90
28761;DHT22;15917;50.014;8.352;2023-02-22T05:16:47;5.80;99.90
28761;DHT22;15917;50.014;8.352;2023-02-22T05:19:14;5.80;99.90
28761;DHT22;15917;50.014;8.352;2023-02-22T05:21:39;5.80;99.90
28761;DHT22;15917;50.014;8.352;2023-02-22T05:24:06;5.80;99.90
28761;DHT22;15917;50.014;8.352;2023-02-22T05:26:32;5.80;99.90
28761;DHT22;15917;50.014;8.352;2023-02-22T05:28:57;5.80;99.90
28761;DHT22;15917;50.014;8.352;2023-02-22T05:31:23;5.80;99.90
28761;DHT22;15917;50.014;8.352;2023-02-22T05:33:49;5.90;99.90
28761;DHT22;15917;50.014;8.352;2023-02-22T05:36:14;6.00;99.90
28761;DHT22;15917;50.014;8.352;2023-02-22T05:38:41;6.00;99.90
28761;DHT22;15917;50.014;8.352;2023-02-22T05:41:12;6.10;99.90
28761;DHT22;15917;50.014;8.352;2023-02-22T05:43:38;6.10;99.90
28761;DHT22;15917;50.014;8.352;2023-02-22T05:46:05;6.00;99.90
28761;DHT22;15917;50.014;8.352;2023-02-22T05:48:31;6.00;99.90
28761;DHT22;15917;50.014;8.352;2023-02-22T05:50:57;6.10;99.90
28761;DHT22;15917;50.014;8.352;2023-02-22T05:53:23;6.10;99.90
28761;DHT22;15917;50.014;8.352;2023-02-22T05:55:49;6.10;99.90
28761;DHT22;15917;50.014;8.352;2023-02-22T05:58:15;6.20;99.90
28761;DHT22;15917;50.014;8.352;2023-02-22T06:00:40;6.30;99.90
28761;DHT22;15917;50.014;8.352;2023-02-22T06:03:07;6.30;99.90
28761;DHT22;15917;50.014;8.352;2023-02-22T06:05:34;6.30;99.90
28761;DHT22;15917;50.014;8.352;2023-02-22T06:08:01;6.30;99.90
28761;DHT22;15917;50.014;8.352;2023-02-22T06:10:26;6.20;99.90
28761;DHT22;15917;50.014;8.352;2023-02-22T06:12:52;6.20;99.90
28761;DHT22;15917;50.014;8.352;2023-02-22T06:15:19;6.10;99.90
28761;DHT22;15917;50.014;8.352;2023-02-22T06:17:46;6.00;99.90
28761;DHT22;15917;50.014;8.352;2023-02-22T06:20:15;5.90;99.90
28761;DHT22;15917;50.014;8.352;2023-02-22T06:22:41;5.80;99.90
28761;DHT22;15917;50.014;8.352;2023-02-22T06:25:08;5.70;99.90
28761;DHT22;15917;50.014;8.352;2023-02-22T06:27:34;5.80;99.90
28761;DHT22;15917;50.014;8.352;2023-02-22T06:30:00;6.20;99.90
28761;DHT22;15917;50.014;8.352;2023-02-22T06:32:26;6.10;99.90
28761;DHT22;15917;50.014;8.352;2023-02-22T06:34:52;6.00;99.90
28761;DHT22;15917;50.014;8.352;2023-02-22T06:37:18;5.90;99.90
28761;DHT22;15917;50.014;8.352;2023-02-22T06:39:44;5.80;99.90
28761;DHT22;15917;50.014;8.352;2023-02-22T06:42:10;5.90;99.90
28761;DHT22;15917;50.014;8.352;2023-02-22T06:44:35;5.90;99.90
28761;DHT22;15917;50.014;8.352;2023-02-22T06:47:01;5.90;99.90
28761;DHT22;15917;50.014;8.352;2023-02-22T06:49:27;5.90;99.90
28761;DHT22;15917;50.014;8.352;2023-02-22T06:51:53;5.80;99.90
28761;DHT22;15917;50.014;8.352;2023-02-22T06:54:19;6.90;99.90
28761;DHT22;15917;50.014;8.352;2023-02-22T06:56:45;7.70;99.90
28761;DHT22;15917;50.014;8.352;2023-02-22T06:59:10;7.90;99.90
28761;DHT22;15917;50.014;8.352;2023-02-22T07:01:36;7.50;99.90
28761;DHT22;15917;50.014;8.352;2023-02-22T07:04:02;7.10;99.90
28761;DHT22;15917;50.014;8.352;2023-02-22T07:06:27;6.70;99.90
28761;DHT22;15917;50.014;8.352;2023-02-22T07:08:53;6.50;99.90
28761;DHT22;15917;50.014;8.352;2023-02-22T07:11:19;6.30;99.90
28761;DHT22;15917;50.014;8.352;2023-02-22T07:13:44;6.10;99.90
28761;DHT22;15917;50.014;8.352;2023-02-22T07:16:10;6.00;99.90
28761;DHT22;15917;50.014;8.352;2023-02-22T07:18:36;5.90;99.90
28761;DHT22;15917;50.014;8.352;2023-02-22T07:21:03;5.90;99.90
28761;DHT22;15917;50.014;8.352;2023-02-22T07:23:29;5.80;99.90
28761;DHT22;15917;50.014;8.352;2023-02-22T07:25:55;5.70;99.90
28761;DHT22;15917;50.014;8.352;2023-02-22T07:28:21;5.70;99.90
28761;DHT22;15917;50.014;8.352;2023-02-22T07:30:46;5.80;99.90
28761;DHT22;15917;50.014;8.352;2023-02-22T07:33:12;5.80;99.90
28761;DHT22;15917;50.014;8.352;2023-02-22T07:35:48;5.60;99.90
28761;DHT22;15917;50.014;8.352;2023-02-22T07:38:16;5.60;99.90
28761;DHT22;15917;50.014;8.352;2023-02-22T07:40:43;5.60;99.90
28761;DHT22;15917;50.014;8.352;2023-02-22T07:43:25;5.50;99.90
28761;DHT22;15917;50.014;8.352;2023-02-22T07:45:54;5.60;99.90
28761;DHT22;15917;50.014;8.352;2023-02-22T07:48:21;5.60;99.90
28761;DHT22;15917;50.014;8.352;2023-02-22T07:50:47;5.60;99.90
28761;DHT22;15917;50.014;8.352;2023-02-22T07:53:27;5.60;99.90
28761;DHT22;15917;50.014;8.352;2023-02-22T07:55:58;5.60;99.90
28761;DHT22;15917;50.014;8.352;2023-02-22T07:58:26;5.70;99.90
28761;DHT22;15917;50.014;8.352;2023-02-22T08:00:52;5.70;99.90
28761;DHT22;15917;50.014;8.352;2023-02-22T08:03:20;5.70;99.90
28761;DHT22;15917;50.014;8.352;2023-02-22T08:05:50;5.80;99.90
28761;DHT22;15917;50.014;8.352;2023-02-22T08:08:16;5.80;99.90
28761;DHT22;15917;50.014;8.352;2023-02-22T08:10:42;5.80;99.90
28761;DHT22;15917;50.014;8.352;2023-02-22T08:13:09;5.80;99.90
28761;DHT22;15917;50.014;8.352;2023-02-22T08:15:37;5.90;99.90
28761;DHT22;15917;50.014;8.352;2023-02-22T08:18:08;6.00;99.90
28761;DHT22;15917;50.014;8.352;2023-02-22T08:20:36;6.10;99.90
28761;DHT22;15917;50.014;8.352;2023-02-22T08:23:02;6.20;99.90
28761;DHT22;15917;50.014;8.352;2023-02-22T08:25:29;6.30;99.90
28761;DHT22;15917;50.014;8.352;2023-02-22T08:28:00;6.40;99.90
28761;DHT22;15917;50.014;8.352;2023-02-22T08:30:28;6.40;99.90
28761;DHT22;15917;50.014;8.352;2023-02-22T08:32:54;6.50;99.90
28761;DHT22;15917;50.014;8.352;2023-02-22T08:35:21;6.70;99.90
28761;DHT22;15917;50.014;8.352;2023-02-22T08:37:50;6.80;99.90
28761;DHT22;15917;50.014;8.352;2023-02-22T08:40:19;6.70;99.90
28761;DHT22;15917;50.014;8.352;2023-02-22T08:42:46;6.80;99.90
28761;DHT22;15917;50.014;8.352;2023-02-22T08:45:12;6.90;99.90
28761;DHT22;15917;50.014;8.352;2023-02-22T08:47:38;6.90;99.90
28761;DHT22;15917;50.014;8.352;2023-02-22T08:50:05;6.90;99.90
28761;DHT22;15917;50.014;8.352;2023-02-22T08:52:31;7.00;99.90
28761;DHT22;15917;50.014;8.352;2023-02-22T08:54:56;7.10;99.90
28761;DHT22;15917;50.014;8.352;2023-02-22T08:57:22;7.10;99.90
28761;DHT22;15917;50.014;8.352;2023-02-22T08:59:47;7.20;99.90
28761;DHT22;15917;50.014;8.352;2023-02-22T09:02:18;7.20;99.90
28761;DHT22;15917;50.014;8.352;2023-02-22T09:04:45;7.20;99.90
28761;DHT22;15917;50.014;8.352;2023-02-22T09:07:11;7.30;99.90
28761;DHT22;15917;50.014;8.352;2023-02-22T09:09:36;7.40;99.90
28761;DHT22;15917;50.014;8.352;2023-02-22T09:12:02;7.60;99.90
28761;DHT22;15917;50.014;8.352;2023-02-22T09:14:28;7.60;99.90
28761;DHT22;15917;50.014;8.352;2023-02-22T09:16:54;7.70;99.90
28761;DHT22;15917;50.014;8.352;2023-02-22T09:19:19;7.80;99.90
28761;DHT22;15917;50.014;8.352;2023-02-22T09:21:54;8.00;99.90
28761;DHT22;15917;50.014;8.352;2023-02-22T09:24:20;8.10;99.90
28761;DHT22;15917;50.014;8.352;2023-02-22T09:26:47;8.20;99.90
28761;DHT22;15917;50.014;8.352;2023-02-22T09:29:17;8.30;99.90
28761;DHT22;15917;50.014;8.352;2023-02-22T09:31:48;8.30;99.90
28761;DHT22;15917;50.014;8.352;2023-02-22T09:34:15;8.10;99.90
28761;DHT22;15917;50.014;8.352;2023-02-22T09:36:46;8.10;99.90
28761;DHT22;15917;50.014;8.352;2023-02-22T09:39:13;8.10;99.90
28761;DHT22;15917;50.014;8.352;2023-02-22T09:44:46;8.10;99.90
28761;DHT22;15917;50.014;8.352;2023-02-22T09:47:22;8.40;99.90
28761;DHT22;15917;50.014;8.352;2023-02-22T09:55:39;8.60;99.90
28761;DHT22;15917;50.014;8.352;2023-02-22T09:58:25;8.60;99.90
28761;DHT22;15917;50.014;8.352;2023-02-22T10:01:08;8.40;99.90
28761;DHT22;15917;50.014;8.352;2023-02-22T10:03:59;8.40;99.90
28761;DHT22;15917;50.014;8.352;2023-02-22T10:06:27;8.40;99.90
28761;DHT22;15917;50.014;8.352;2023-02-22T10:08:57;8.40;99.90
28761;DHT22;15917;50.014;8.352;2023-02-22T10:17:03;8.40;99.90
28761;DHT22;15917;50.014;8.352;2023-02-22T10:22:53;8.40;99.90
28761;DHT22;15917;50.014;8.352;2023-02-22T10:25:25;8.50;99.90
28761;DHT22;15917;50.014;8.352;2023-02-22T10:28:00;8.40;99.90
28761;DHT22;15917;50.014;8.352;2023-02-22T10:30:37;8.50;99.90
28761;DHT22;15917;50.014;8.352;2023-02-22T10:33:20;8.60;99.90
28761;DHT22;15917;50.014;8.352;2023-02-22T10:35:47;8.80;99.90
28761;DHT22;15917;50.014;8.352;2023-02-22T10:38:17;9.00;99.90
28761;DHT22;15917;50.014;8.352;2023-02-22T10:43:29;9.30;99.90
28761;DHT22;15917;50.014;8.352;2023-02-22T10:46:03;9.50;99.90
28761;DHT22;15917;50.014;8.352;2023-02-22T10:48:33;9.70;99.90
28761;DHT22;15917;50.014;8.352;2023-02-22T10:51:02;9.80;99.90
28761;DHT22;15917;50.014;8.352;2023-02-22T10:53:30;10.00;99.90
28761;DHT22;15917;50.014;8.352;2023-02-22T10:56:17;10.20;99.90
28761;DHT22;15917;50.014;8.352;2023-02-22T10:58:59;10.40;99.90
28761;DHT22;15917;50.014;8.352;2023-02-22T11:01:32;10.60;99.90
28761;DHT22;15917;50.014;8.352;2023-02-22T11:04:13;10.90;99.90
28761;DHT22;15917;50.014;8.352;2023-02-22T11:06:41;11.30;99.90
28761;DHT22;15917;50.014;8.352;2023-02-22T11:09:11;11.70;99.90
28761;DHT22;15917;50.014;8.352;2023-02-22T11:11:40;12.10;99.90
28761;DHT22;15917;50.014;8.352;2023-02-22T11:14:07;12.10;99.90
28761;DHT22;15917;50.014;8.352;2023-02-22T11:16:45;12.20;99.90
28761;DHT22;15917;50.014;8.352;2023-02-22T11:19:25;12.00;99.90
28761;DHT22;15917;50.014;8.352;2023-02-22T11:21:52;12.10;99.90
28761;DHT22;15917;50.014;8.352;2023-02-22T11:24:20;12.10;99.90
28761;DHT22;15917;50.014;8.352;2023-02-22T11:26:53;12.20;99.90
28761;DHT22;15917;50.014;8.352;2023-02-22T11:29:25;12.10;99.90
28761;DHT22;15917;50.014;8.352;2023-02-22T11:31:52;12.10;99.90
28761;DHT22;15917;50.014;8.352;2023-02-22T11:36:51;12.00;99.90
28761;DHT22;15917;50.014;8.352;2023-02-22T11:39:29;12.10;99.90
28761;DHT22;15917;50.014;8.352;2023-02-22T11:42:23;11.90;99.90
28761;DHT22;15917;50.014;8.352;2023-02-22T11:47:32;12.30;99.90
28761;DHT22;15917;50.014;8.352;2023-02-22T11:49:58;12.50;99.90
28761;DHT22;15917;50.014;8.352;2023-02-22T11:52:29;12.80;99.90
28761;DHT22;15917;50.014;8.352;2023-02-22T11:55:23;12.80;99.90
28761;DHT22;15917;50.014;8.352;2023-02-22T11:58:04;12.80;99.90
28761;DHT22;15917;50.014;8.352;2023-02-22T12:03:27;13.30;99.90
28761;DHT22;15917;50.014;8.352;2023-02-22T12:06:09;13.70;99.90
28761;DHT22;15917;50.014;8.352;2023-02-22T12:11:24;13.70;99.90
28761;DHT22;15917;50.014;8.352;2023-02-22T12:19:42;13.60;99.90
28761;DHT22;15917;50.014;8.352;2023-02-22T12:24:51;13.60;99.90
28761;DHT22;15917;50.014;8.352;2023-02-22T12:27:26;13.50;99.90
28761;DHT22;15917;50.014;8.352;2023-02-22T12:30:04;13.60;99.90
28761;DHT22;15917;50.014;8.352;2023-02-22T12:32:56;13.60;99.90
28761;DHT22;15917;50.014;8.352;2023-02-22T12:35:26;13.70;99.90
28761;DHT22;15917;50.014;8.352;2023-02-22T12:48:53;13.60;99.90
28761;DHT22;15917;50.014;8.352;2023-02-22T12:51:30;13.30;99.90
28761;DHT22;15917;50.014;8.352;2023-02-22T12:59:40;12.90;99.90
28761;DHT22;15917;50.014;8.352;2023-02-22T13:02:31;13.00;99.90
28761;DHT22;15917;50.014;8.352;2023-02-22T13:05:00;13.10;99.90
28761;DHT22;15917;50.014;8.352;2023-02-22T13:15:59;13.30;99.90
28761;DHT22;15917;50.014;8.352;2023-02-22T13:18:37;13.30;99.90
28761;DHT22;15917;50.014;8.352;2023-02-22T13:21:19;13.10;99.90
28761;DHT22;15917;50.014;8.352;2023-02-22T13:23:59;13.10;99.90
28761;DHT22;15917;50.014;8.352;2023-02-22T13:26:39;13.20;99.90
28761;DHT22;15917;50.014;8.352;2023-02-22T13:29:15;13.20;99.90
28761;DHT22;15917;50.014;8.352;2023-02-22T13:34:43;13.00;99.90
28761;DHT22;15917;50.014;8.352;2023-02-22T13:43:32;12.70;99.90
28761;DHT22;15917;50.014;8.352;2023-02-22T13:48:51;12.90;99.90
28761;DHT22;15917;50.014;8.352;2023-02-22T13:56:45;13.20;99.90
28761;DHT22;15917;50.014;8.352;2023-02-22T14:01:57;13.30;99.90
28761;DHT22;15917;50.014;8.352;2023-02-22T14:06:56;13.00;99.90
28761;DHT22;15917;50.014;8.352;2023-02-22T14:18:20;12.80;99.90
28761;DHT22;15917;50.014;8.352;2023-02-22T14:20:27;12.80;99.90
28761;DHT22;15917;50.014;8.352;2023-02-22T14:25:53;13.00;99.90
28761;DHT22;15917;50.014;8.352;2023-02-22T14:31:15;13.10;99.90
28761;DHT22;15917;50.014;8.352;2023-02-22T14:34:04;13.00;99.90
28761;DHT22;15917;50.014;8.352;2023-02-22T14:41:45;13.10;99.90
28761;DHT22;15917;50.014;8.352;2023-02-22T14:44:12;13.10;99.90
28761;DHT22;15917;50.014;8.352;2023-02-22T14:46:40;13.20;99.90
28761;DHT22;15917;50.014;8.352;2023-02-22T14:49:09;13.20;99.90
28761;DHT22;15917;50.014;8.352;2023-02-22T14:51:41;13.30;99.90
28761;DHT22;15917;50.014;8.352;2023-02-22T14:54:47;13.20;99.90
28761;DHT22;15917;50.014;8.352;2023-02-22T15:02:45;13.30;99.90
28761;DHT22;15917;50.014;8.352;2023-02-22T15:05:15;13.40;99.90
28761;DHT22;15917;50.014;8.352;2023-02-22T15:07:53;13.40;99.90
28761;DHT22;15917;50.014;8.352;2023-02-22T15:10:26;13.40;99.90
28761;DHT22;15917;50.014;8.352;2023-02-22T15:13:12;13.40;99.90
28761;DHT22;15917;50.014;8.352;2023-02-22T15:15:46;13.30;99.90
28761;DHT22;15917;50.014;8.352;2023-02-22T15:18:25;13.30;99.90
28761;DHT22;15917;50.014;8.352;2023-02-22T15:20:54;13.40;99.90
28761;DHT22;15917;50.014;8.352;2023-02-22T15:23:28;13.40;99.90
28761;DHT22;15917;50.014;8.352;2023-02-22T15:25:55;13.40;99.90
28761;DHT22;15917;50.014;8.352;2023-02-22T15:28:22;13.40;99.90
28761;DHT22;15917;50.014;8.352;2023-02-22T15:30:48;13.30;99.90
28761;DHT22;15917;50.014;8.352;2023-02-22T15:33:18;13.30;99.90
28761;DHT22;15917;50.014;8.352;2023-02-22T15:35:56;13.20;99.90
28761;DHT22;15917;50.014;8.352;2023-02-22T15:38:28;13.10;99.90
28761;DHT22;15917;50.014;8.352;2023-02-22T15:41:05;13.00;99.90
28761;DHT22;15917;50.014;8.352;2023-02-22T15:43:33;12.90;99.90
28761;DHT22;15917;50.014;8.352;2023-02-22T15:45:59;12.90;99.90
28761;DHT22;15917;50.014;8.352;2023-02-22T15:48:26;12.80;99.90
28761;DHT22;15917;50.014;8.352;2023-02-22T15:51:08;12.80;99.90
28761;DHT22;15917;50.014;8.352;2023-02-22T15:53:43;12.70;99.90
28761;DHT22;15917;50.014;8.352;2023-02-22T15:56:18;12.60;99.90
28761;DHT22;15917;50.014;8.352;2023-02-22T15:58:48;12.60;99.90
28761;DHT22;15917;50.014;8.352;2023-02-22T16:01:16;12.50;99.90
28761;DHT22;15917;50.014;8.352;2023-02-22T16:03:52;12.40;99.90
28761;DHT22;15917;50.014;8.352;2023-02-22T16:08:51;12.30;99.90
28761;DHT22;15917;50.014;8.352;2023-02-22T16:11:25;12.30;99.90
28761;DHT22;15917;50.014;8.352;2023-02-22T16:13:58;12.20;99.90
28761;DHT22;15917;50.014;8.352;2023-02-22T16:16:29;12.20;99.90
28761;DHT22;15917;50.014;8.352;2023-02-22T16:19:27;12.10;99.90
28761;DHT22;15917;50.014;8.352;2023-02-22T16:21:57;12.10;99.90
28761;DHT22;15917;50.014;8.352;2023-02-22T16:24:32;12.00;99.90
28761;DHT22;15917;50.014;8.352;2023-02-22T16:29:43;11.90;99.90
28761;DHT22;15917;50.014;8.352;2023-02-22T16:32:09;11.80;99.90
28761;DHT22;15917;50.014;8.352;2023-02-22T16:34:36;11.80;99.90
28761;DHT22;15917;50.014;8.352;2023-02-22T16:37:01;11.70;99.90
28761;DHT22;15917;50.014;8.352;2023-02-22T16:39:31;11.70;99.90
28761;DHT22;15917;50.014;8.352;2023-02-22T16:42:03;11.70;99.90
28761;DHT22;15917;50.014;8.352;2023-02-22T16:44:29;11.60;99.90
28761;DHT22;15917;50.014;8.352;2023-02-22T16:46:57;11.60;99.90
28761;DHT22;15917;50.014;8.352;2023-02-22T16:49:23;11.60;99.90
28761;DHT22;15917;50.014;8.352;2023-02-22T16:54:39;11.50;99.90
28761;DHT22;15917;50.014;8.352;2023-02-22T16:57:05;11.40;99.90
28761;DHT22;15917;50.014;8.352;2023-02-22T16:59:36;11.40;99.90
28761;DHT22;15917;50.014;8.352;2023-02-22T17:02:03;11.30;99.90
28761;DHT22;15917;50.014;8.352;2023-02-22T17:04:33;11.30;99.90
28761;DHT22;15917;50.014;8.352;2023-02-22T17:06:59;11.60;99.90
28761;DHT22;15917;50.014;8.352;2023-02-22T17:09:24;12.40;99.90
28761;DHT22;15917;50.014;8.352;2023-02-22T17:11:50;12.80;99.90
28761;DHT22;15917;50.014;8.352;2023-02-22T17:14:19;12.70;99.90
28761;DHT22;15917;50.014;8.352;2023-02-22T17:16:51;12.30;99.90
28761;DHT22;15917;50.014;8.352;2023-02-22T17:19:19;12.00;99.90
28761;DHT22;15917;50.014;8.352;2023-02-22T17:21:46;11.70;99.90
28761;DHT22;15917;50.014;8.352;2023-02-22T17:24:13;11.50;99.90
28761;DHT22;15917;50.014;8.352;2023-02-22T17:26:40;11.40;99.90
28761;DHT22;15917;50.014;8.352;2023-02-22T17:29:05;11.30;99.90
28761;DHT22;15917;50.014;8.352;2023-02-22T17:31:31;11.10;99.90
28761;DHT22;15917;50.014;8.352;2023-02-22T17:34:01;11.10;99.90
28761;DHT22;15917;50.014;8.352;2023-02-22T17:36:32;11.00;99.90
28761;DHT22;15917;50.014;8.352;2023-02-22T17:38:58;11.00;99.90
28761;DHT22;15917;50.014;8.352;2023-02-22T17:41:24;10.90;99.90
28761;DHT22;15917;50.014;8.352;2023-02-22T17:43:50;10.90;99.90
28761;DHT22;15917;50.014;8.352;2023-02-22T17:46:16;11.10;99.90
28761;DHT22;15917;50.014;8.352;2023-02-22T17:48:44;11.90;99.90
28761;DHT22;15917;50.014;8.352;2023-02-22T17:51:11;11.90;99.90
28761;DHT22;15917;50.014;8.352;2023-02-22T17:53:37;11.70;99.90
28761;DHT22;15917;50.014;8.352;2023-02-22T17:56:08;11.40;99.90
28761;DHT22;15917;50.014;8.352;2023-02-22T17:58:35;11.20;99.90
28761;DHT22;15917;50.014;8.352;2023-02-22T18:01:01;11.10;99.90
28761;DHT22;15917;50.014;8.352;2023-02-22T18:03:28;11.00;99.90
28761;DHT22;15917;50.014;8.352;2023-02-22T18:05:55;10.90;99.90
28761;DHT22;15917;50.014;8.352;2023-02-22T18:08:28;10.80;99.90
28761;DHT22;15917;50.014;8.352;2023-02-22T18:10:55;10.70;99.90
28761;DHT22;15917;50.014;8.352;2023-02-22T18:13:23;10.70;99.90
28761;DHT22;15917;50.014;8.352;2023-02-22T18:15:49;10.60;99.90
28761;DHT22;15917;50.014;8.352;2023-02-22T18:18:15;10.60;99.90
28761;DHT22;15917;50.014;8.352;2023-02-22T18:20:43;10.60;99.90